Time;durP1;ratioP1;P1;durP2;ratioP2;P2;SDS_P1;SDS_P2;PMS_P1;PMS_P2;Temp;Humidity;BMP_temperature;BMP_pressure;BME280_temperature;BME280_humidity;BME280_pressure;Samples;Min_cycle;Max_cycle;Signal;HPM_P1;HPM_P2
2024/03/23 00:00:08;;;;;;;;;9.00;4.25;;;;;10.27;80.11;100943.38;5044279;28;70268;-54
2024/03/23 00:02:34;;;;;;;;;11.50;7.00;;;;;10.28;79.54;100937.25;5051717;28;46045;-55
2024/03/23 00:05:00;;;;;;;;;10.50;5.00;;;;;10.24;79.53;100944.31;5051612;28;70900;-57
2024/03/23 00:07:27;;;;;;;;;11.50;6.00;;;;;10.20;79.72;100940.03;5057165;28;45317;-56
2024/03/23 00:09:53;;;;;;;;;11.00;6.75;;;;;10.17;79.22;100942.72;5056819;28;71980;-56
2024/03/23 00:12:19;;;;;;;;;15.75;8.00;;;;;10.12;79.27;100948.94;5057118;28;74526;-55
2024/03/23 00:14:46;;;;;;;;;12.25;7.50;;;;;10.06;79.57;100949.94;5058951;28;63587;-54
2024/03/23 00:17:12;;;;;;;;;5.75;5.00;;;;;10.00;79.42;100953.53;5057650;28;68476;-56
2024/03/23 00:19:39;;;;;;;;;5.00;4.50;;;;;9.94;79.43;100958.91;5053051;28;73518;-54
2024/03/23 00:22:05;;;;;;;;;8.25;5.75;;;;;9.87;79.55;100960.78;5040172;28;45467;-54
2024/03/23 00:24:31;;;;;;;;;11.25;5.75;;;;;9.83;79.67;100966.13;5038285;28;45468;-56
2024/03/23 00:26:58;;;;;;;;;10.25;7.25;;;;;9.77;79.63;100951.38;5040828;28;61557;-58
2024/03/23 00:29:24;;;;;;;;;7.25;5.50;;;;;9.71;79.64;100951.53;5047120;28;71853;-54
2024/03/23 00:31:50;;;;;;;;;15.50;11.00;;;;;9.70;80.56;100952.41;5057729;28;60843;-55
2024/03/23 00:34:17;;;;;;;;;11.50;8.75;;;;;9.73;80.44;100949.75;5049522;28;61221;-55
2024/03/23 00:36:43;;;;;;;;;14.00;9.25;;;;;9.73;80.06;100959.34;5039311;28;55852;-56
2024/03/23 00:39:10;;;;;;;;;13.75;9.25;;;;;9.73;80.09;100964.56;5059484;28;45259;-55
2024/03/23 00:41:36;;;;;;;;;14.50;10.75;;;;;9.73;79.92;100962.81;5049839;28;46710;-56
2024/03/23 00:44:03;;;;;;;;;10.75;10.00;;;;;9.63;79.59;100937.75;5047320;28;51655;-56
2024/03/23 00:46:29;;;;;;;;;16.25;12.00;;;;;9.67;79.91;100949.88;5048844;28;45343;-55
2024/03/23 00:48:55;;;;;;;;;13.50;10.00;;;;;9.65;80.23;100949.91;5058730;28;74264;-55
2024/03/23 00:51:22;;;;;;;;;18.50;13.25;;;;;9.67;80.22;100947.25;5038992;28;68818;-57
2024/03/23 00:53:48;;;;;;;;;18.75;11.25;;;;;9.66;nan;100941.16;5037269;28;70441;-57
2024/03/23 00:56:13;;;;;;;;;14.50;11.50;;;;;9.68;80.41;100936.78;5028701;28;61702;-56
2024/03/23 00:58:38;;;;;;;;;17.25;12.00;;;;;9.73;80.30;100939.28;5058238;28;48532;-57
2024/03/23 01:01:04;;;;;;;;;18.00;11.75;;;;;9.76;80.44;100936.63;5059285;28;52454;-56
2024/03/23 01:03:30;;;;;;;;;20.00;13.50;;;;;9.80;80.28;100946.09;5058937;28;56359;-55
2024/03/23 01:06:01;;;;;;;;;20.50;13.75;;;;;9.88;80.14;100951.19;5059245;28;45266;-56
2024/03/23 01:08:27;;;;;;;;;14.75;11.00;;;;;9.92;79.89;100938.94;5059198;28;45322;-59
2024/03/23 01:10:59;;;;;;;;;19.50;14.00;;;;;9.93;79.90;100946.72;5039791;28;62051;-57
2024/03/23 01:13:25;;;;;;;;;19.50;12.75;;;;;9.92;79.53;100933.69;5042029;28;45349;-57
2024/03/23 01:15:51;;;;;;;;;15.50;12.75;;;;;9.89;79.51;100932.00;5046582;28;45269;-58
2024/03/23 01:18:20;;;;;;;;;22.00;13.50;;;;;9.92;79.68;100936.31;5056592;28;45270;-56
2024/03/23 01:20:45;;;;;;;;;20.25;12.25;;;;;9.92;79.86;100952.84;5056763;28;45720;-54
2024/03/23 01:23:11;;;;;;;;;17.25;13.00;;;;;9.95;79.93;100950.19;5056101;28;45284;-57
2024/03/23 01:25:36;;;;;;;;;22.00;13.25;;;;;10.00;79.69;100952.69;5056213;28;45710;-58
2024/03/23 01:28:01;;;;;;;;;14.50;10.25;;;;;10.01;79.50;100946.56;5055656;28;72263;-55
2024/03/23 01:30:27;;;;;;;;;16.00;10.50;;;;;10.05;79.62;100945.59;5055464;28;74599;-54
2024/03/23 01:32:52;;;;;;;;;15.00;11.00;;;;;10.05;79.73;100951.69;5058169;28;45170;-55
2024/03/23 01:35:17;;;;;;;;;19.75;12.25;;;;;10.10;79.59;100950.75;5042939;28;68289;-54
2024/03/23 01:37:43;;;;;;;;;14.00;11.50;;;;;10.13;79.60;100940.19;5052700;28;73288;-55
2024/03/23 01:40:09;;;;;;;;;21.00;12.00;;;;;10.14;79.08;100939.31;5047332;28;75658;-55
2024/03/23 01:42:34;;;;;;;;;17.50;11.00;;;;;10.17;78.86;100937.50;5055991;28;45363;-57
2024/03/23 01:44:59;;;;;;;;;14.25;8.75;;;;;10.17;78.94;100934.88;5041490;28;69205;-54
2024/03/23 01:47:24;;;;;;;;;12.00;9.75;;;;;10.16;78.63;100943.59;5059237;28;45517;-55
2024/03/23 01:49:51;;;;;;;;;14.00;9.25;;;;;10.17;78.63;100942.72;5059377;28;75664;-55
2024/03/23 01:52:16;;;;;;;;;13.50;10.25;;;;;10.16;78.48;100938.38;5060124;28;45403;-55
2024/03/23 01:54:42;;;;;;;;;12.75;9.50;;;;;10.17;78.90;100941.88;5056137;28;45589;-55
2024/03/23 01:57:08;;;;;;;;;6.50;5.00;;;;;10.16;78.68;100954.06;5056050;28;73197;-56
2024/03/23 01:59:33;;;;;;;;;12.75;7.00;;;;;10.17;78.66;100944.47;5048079;28;55384;-55
2024/03/23 02:01:58;;;;;;;;;16.25;8.25;;;;;10.18;78.51;100951.41;5049803;27;45475;-55
2024/03/23 02:04:24;;;;;;;;;9.75;9.25;;;;;10.16;78.67;100956.69;5059390;28;69315;-52
2024/03/23 02:06:49;;;;;;;;;8.75;5.00;;;;;10.19;78.36;100951.38;5060589;28;45415;-54
2024/03/23 02:09:15;;;;;;;;;14.25;8.75;;;;;10.19;78.59;100947.91;5058411;28;57947;-51
2024/03/23 02:11:40;;;;;;;;;12.00;8.25;;;;;10.22;78.62;100942.63;5060050;28;45348;-54
2024/03/23 02:14:06;;;;;;;;;12.50;6.00;;;;;10.24;78.17;100952.16;5038857;28;45202;-55
2024/03/23 02:16:31;;;;;;;;;8.50;5.75;;;;;10.28;78.17;100955.56;5044726;28;45450;-57
2024/03/23 02:18:56;;;;;;;;;11.00;5.00;;;;;10.33;77.84;100965.97;5059833;28;71970;-55
2024/03/23 02:21:21;;;;;;;;;5.50;4.50;;;;;10.33;77.58;100961.59;5049104;28;72189;-56
2024/03/23 02:23:47;;;;;;;;;8.00;3.75;;;;;10.33;76.86;100953.72;5044083;28;45470;-55
2024/03/23 02:26:14;;;;;;;;;6.25;4.75;;;;;10.32;76.78;100964.22;5059088;28;72116;-56
2024/03/23 02:28:39;;;;;;;;;11.75;5.00;;;;;10.34;76.96;100957.19;5061383;27;46244;-56
2024/03/23 02:31:04;;;;;;;;;4.50;2.75;;;;;10.38;76.68;100964.09;5058364;28;72175;-57
2024/03/23 02:33:29;;;;;;;;;6.50;2.75;;;;;10.39;75.96;100979.78;5060731;28;69613;-56
2024/03/23 02:35:58;;;;;;;;;4.75;0.00;;;;;10.31;75.08;100966.00;5057910;28;71072;-57
2024/03/23 02:38:23;;;;;;;;;5.25;3.00;;;;;10.19;75.47;100968.84;5061244;28;45386;-54
2024/03/23 02:40:48;;;;;;;;;4.25;3.25;;;;;10.09;75.70;100970.78;5059574;28;73163;-56
2024/03/23 02:43:13;;;;;;;;;5.00;2.00;;;;;10.07;76.03;100972.56;5058219;28;47030;-54
2024/03/23 02:45:39;;;;;;;;;3.00;1.75;;;;;10.01;75.99;100983.19;5053702;28;67424;-55
2024/03/23 02:48:05;;;;;;;;;3.50;2.50;;;;;9.97;75.82;100971.91;5059466;28;72446;-56
2024/03/23 02:50:30;;;;;;;;;2.00;2.00;;;;;9.95;76.08;100986.78;5058986;28;45685;-56
2024/03/23 02:52:56;;;;;;;;;4.50;1.00;;;;;9.87;75.94;100980.84;5054981;28;66228;-55
2024/03/23 02:55:21;;;;;;;;;3.00;2.00;;;;;9.80;75.87;100972.25;5042363;28;45466;-57
2024/03/23 02:57:47;;;;;;;;;2.50;2.00;;;;;9.77;76.36;100977.53;5058138;28;45468;-57
2024/03/23 03:00:12;;;;;;;;;4.50;3.00;;;;;9.75;76.10;100978.47;5059030;28;45337;-56
2024/03/23 03:02:38;;;;;;;;;3.00;2.00;;;;;9.68;75.97;100991.66;5054984;28;45426;-52
2024/03/23 03:05:05;;;;;;;;;4.25;2.00;;;;;9.62;75.85;100983.94;5059265;28;46306;-55
2024/03/23 03:07:31;;;;;;;;;4.75;2.00;;;;;9.54;75.96;100988.41;5059240;28;46280;-57
2024/03/23 03:09:56;;;;;;;;;8.50;3.00;;;;;9.53;76.19;100984.09;5056193;28;45476;-57
2024/03/23 03:12:21;;;;;;;;;5.00;2.00;;;;;9.49;75.82;101001.59;5056690;28;69029;-55
2024/03/23 03:14:47;;;;;;;;;4.00;3.00;;;;;9.47;75.76;101000.75;5049039;28;72076;-57
2024/03/23 03:17:13;;;;;;;;;4.50;2.00;;;;;9.46;75.98;101001.63;5044066;28;47219;-56
2024/03/23 03:19:38;;;;;;;;;2.00;2.00;;;;;9.41;75.62;101002.63;5055947;28;45337;-56
2024/03/23 03:22:04;;;;;;;;;2.50;1.00;;;;;9.33;75.35;101000.16;5046707;28;69432;-56
2024/03/23 03:24:29;;;;;;;;;7.00;2.00;;;;;9.28;75.31;101000.22;5055802;28;45363;-56
2024/03/23 03:26:55;;;;;;;;;4.25;2.25;;;;;9.24;75.31;101023.78;5053559;28;48537;-55
2024/03/23 03:29:20;;;;;;;;;5.50;4.00;;;;;9.15;74.74;101006.53;5054987;28;52848;-56
2024/03/23 03:31:46;;;;;;;;;4.00;2.00;;;;;9.10;75.17;101000.50;5054372;28;58437;-56
2024/03/23 03:34:11;;;;;;;;;6.75;3.00;;;;;9.07;75.00;101004.06;5058570;27;47266;-56
2024/03/23 03:36:36;;;;;;;;;5.00;2.00;;;;;9.03;75.08;100991.94;5054601;28;46258;-56
2024/03/23 03:39:06;;;;;;;;;8.50;1.75;;;;;8.97;75.04;101005.06;5053761;28;72147;-56
2024/03/23 03:41:31;;;;;;;;;5.00;2.00;;;;;8.91;75.05;101013.03;5054340;28;45390;-55
2024/03/23 03:44:01;;;;;;;;;4.25;2.00;;;;;8.87;75.26;101008.72;5054262;28;57106;-57
2024/03/23 03:46:26;;;;;;;;;5.50;2.00;;;;;8.82;74.98;101020.97;5053053;28;45221;-55
2024/03/23 03:48:51;;;;;;;;;2.00;1.00;;;;;8.76;74.79;101015.84;5059889;28;45317;-56
2024/03/23 03:51:17;;;;;;;;;5.00;2.75;;;;;8.70;74.72;101015.06;5052688;28;62086;-53
2024/03/23 03:53:42;;;;;;;;;6.00;1.00;;;;;8.66;74.93;101030.81;5074177;28;70265;-53
2024/03/23 03:56:07;;;;;;;;;2.25;2.25;;;;;8.65;75.08;101023.84;5053348;28;74649;-56
2024/03/23 03:58:33;;;;;;;;;6.25;0.75;;;;;8.61;75.07;101024.78;5058004;28;45287;-53
2024/03/23 04:00:58;;;;;;;;;5.25;1.50;;;;;8.60;75.25;101030.88;5052341;28;62695;-56
2024/03/23 04:03:23;;;;;;;;;5.75;1.00;;;;;8.60;75.33;101036.09;5053280;28;73168;-56
2024/03/23 04:05:55;;;;;;;;;4.25;1.75;;;;;8.59;75.03;101036.97;5051939;28;76592;-54
2024/03/23 04:08:21;;;;;;;;;3.50;2.75;;;;;8.55;74.79;101039.63;5047806;28;73478;-53
2024/03/23 04:10:46;;;;;;;;;4.50;1.50;;;;;8.51;74.97;101037.94;5053693;28;45398;-53
2024/03/23 04:13:12;;;;;;;;;2.75;2.00;;;;;8.51;75.24;101032.72;5054696;28;73133;-53
2024/03/23 04:15:37;;;;;;;;;3.25;2.25;;;;;8.52;75.26;101033.59;5057058;28;46205;-55
2024/03/23 04:18:03;;;;;;;;;5.50;3.00;;;;;8.53;75.19;101041.41;5042010;28;45731;-52
2024/03/23 04:20:28;;;;;;;;;2.75;2.00;;;;;8.53;75.37;101037.91;5046486;28;45476;-55
2024/03/23 04:22:54;;;;;;;;;4.50;2.00;;;;;8.53;75.56;101030.09;5048810;28;70453;-55
2024/03/23 04:25:19;;;;;;;;;6.50;3.25;;;;;8.55;75.27;101030.91;5059356;27;45482;-49
2024/03/23 04:27:45;;;;;;;;;4.75;2.00;;;;;8.56;75.53;101035.28;5057084;28;45521;-54
2024/03/23 04:30:11;;;;;;;;;4.25;1.00;;;;;8.59;75.41;101036.97;5060093;28;45419;-53
2024/03/23 04:32:39;;;;;;;;;9.75;2.00;;;;;8.58;75.24;101037.84;5058075;28;45589;-56
2024/03/23 04:35:11;;;;;;;;;6.75;2.00;;;;;8.54;75.07;101034.44;5053646;28;48825;-52
2024/03/23 04:37:37;;;;;;;;;5.50;2.00;;;;;8.53;75.24;101043.13;5052271;28;45770;-55
2024/03/23 04:40:07;;;;;;;;;6.00;2.00;;;;;8.51;75.05;101043.16;5047233;28;45358;-56
2024/03/23 04:42:32;;;;;;;;;3.00;1.25;;;;;8.53;74.96;101054.44;5049524;28;45439;-55
2024/03/23 04:44:57;;;;;;;;;3.75;1.00;;;;;8.47;74.92;101041.47;5058083;28;57959;-54
2024/03/23 04:47:23;;;;;;;;;7.50;1.50;;;;;8.49;75.10;101050.13;5056713;28;69531;-55
2024/03/23 04:49:48;;;;;;;;;5.00;1.25;;;;;8.50;75.21;101056.22;5057651;28;66531;-56
2024/03/23 04:52:14;;;;;;;;;3.75;1.00;;;;;8.52;75.23;101059.69;5056599;28;45608;-55
2024/03/23 04:54:42;;;;;;;;;4.25;2.00;;;;;8.52;74.79;101063.13;5057319;28;66133;-55
2024/03/23 04:57:07;;;;;;;;;10.00;2.00;;;;;8.57;74.80;101064.81;5055047;28;46012;-54
2024/03/23 04:59:33;;;;;;;;;4.00;2.00;;;;;8.60;74.87;101062.19;5057815;28;68259;-55
2024/03/23 05:01:59;;;;;;;;;6.25;2.00;;;;;8.66;75.14;101070.78;5057585;28;45300;-53
2024/03/23 05:04:24;;;;;;;;;2.75;1.00;;;;;8.71;74.80;101071.59;5058057;28;46000;-55
2024/03/23 05:06:49;;;;;;;;;5.00;1.00;;;;;8.69;74.91;101075.97;5056560;28;72891;-56
2024/03/23 05:09:15;;;;;;;;;9.50;1.50;;;;;8.73;74.55;101082.88;5052161;28;67250;-55
2024/03/23 05:11:41;;;;;;;;;9.00;1.00;;;;;8.74;74.81;101083.72;5044827;28;72111;-55
2024/03/23 05:14:07;;;;;;;;;5.50;2.00;;;;;8.74;74.37;101074.13;5042757;28;46141;-56
2024/03/23 05:16:32;;;;;;;;;5.00;4.00;;;;;8.73;74.38;101088.09;5042663;28;46706;-57
2024/03/23 05:18:57;;;;;;;;;2.75;1.00;;;;;8.68;74.22;101081.22;5057088;28;45466;-56
2024/03/23 05:21:23;;;;;;;;;7.75;2.00;;;;;8.64;73.98;101087.31;5060599;28;73177;-57
2024/03/23 05:23:48;;;;;;;;;3.25;1.50;;;;;8.60;73.93;101083.03;5058908;28;75161;-55
2024/03/23 05:26:14;;;;;;;;;6.25;1.25;;;;;8.53;73.52;101088.34;5061834;28;45390;-55
2024/03/23 05:28:40;;;;;;;;;5.00;2.50;;;;;8.47;73.50;101091.03;5060471;28;45260;-56
2024/03/23 05:31:05;;;;;;;;;3.00;1.00;;;;;8.42;73.66;101086.72;5061575;28;45561;-56
2024/03/23 05:33:31;;;;;;;;;0.50;0.50;;;;;8.41;73.94;101098.03;5060709;28;74638;-55
2024/03/23 05:35:57;;;;;;;;;2.00;0.50;;;;;8.41;73.54;101100.63;5061101;28;59846;-56
2024/03/23 05:38:22;;;;;;;;;1.00;0.75;;;;;8.40;73.46;101101.53;5062840;28;45417;-55
2024/03/23 05:40:54;;;;;;;;;1.75;0.50;;;;;8.42;73.21;101098.03;5057960;28;72621;-55
2024/03/23 05:43:20;;;;;;;;;3.75;0.00;;;;;8.43;73.02;101104.13;5061093;28;47172;-56
2024/03/23 05:45:45;;;;;;;;;2.00;2.00;;;;;8.43;72.80;101107.59;5060282;28;45342;-56
2024/03/23 05:48:10;;;;;;;;;1.25;1.00;;;;;8.42;72.75;101110.19;5061933;28;45450;-49
2024/03/23 05:50:36;;;;;;;;;3.25;0.75;;;;;8.42;72.67;101105.88;5059464;28;74367;-53
2024/03/23 05:53:01;;;;;;;;;2.00;0.75;;;;;8.42;72.68;101115.41;5053491;28;72166;-55
2024/03/23 05:55:27;;;;;;;;;2.50;1.00;;;;;8.40;72.20;101109.34;5056882;28;69597;-55
2024/03/23 05:57:52;;;;;;;;;3.75;1.00;;;;;8.39;72.30;101115.44;5050733;28;45430;-52
2024/03/23 06:00:18;;;;;;;;;2.25;1.00;;;;;8.35;72.27;101115.47;5054320;28;67684;-55
2024/03/23 06:02:44;;;;;;;;;1.00;1.00;;;;;8.35;72.22;101130.25;5058536;28;47565;-56
2024/03/23 06:05:12;;;;;;;;;1.00;0.00;;;;;8.34;72.32;101123.34;5061404;28;45468;-58
2024/03/23 06:07:38;;;;;;;;;1.50;1.00;;;;;8.36;72.51;101130.25;5058992;28;45480;-55
2024/03/23 06:10:07;;;;;;;;;1.00;1.00;;;;;8.39;72.25;101133.69;5056265;28;45671;-54
2024/03/23 06:12:32;;;;;;;;;3.00;0.00;;;;;8.42;72.56;101138.88;5052066;28;45432;-55
2024/03/23 06:14:58;;;;;;;;;1.00;0.00;;;;;8.46;72.36;101133.63;5055251;28;47211;-54
2024/03/23 06:17:23;;;;;;;;;6.75;3.75;;;;;8.46;72.13;101133.63;5051815;28;48133;-55
2024/03/23 06:19:49;;;;;;;;;2.00;1.00;;;;;8.43;72.09;101133.69;5060824;28;55193;-54
2024/03/23 06:22:14;;;;;;;;;1.25;0.50;;;;;8.40;71.97;101143.25;5057516;28;45458;-56
2024/03/23 06:24:39;;;;;;;;;0.50;0.50;;;;;8.39;72.08;101154.56;5060844;28;49092;-56
2024/03/23 06:27:05;;;;;;;;;1.00;0.00;;;;;8.48;72.38;101162.31;5060119;28;63435;-54
2024/03/23 06:29:30;;;;;;;;;2.75;0.00;;;;;8.58;72.02;101165.69;5059647;28;45351;-55
2024/03/23 06:31:55;;;;;;;;;2.25;0.00;;;;;8.65;73.43;101142.09;5059729;28;74405;-56
2024/03/23 06:34:24;;;;;;;;;0.00;0.00;;;;;8.68;72.25;101164.69;5036823;28;62798;-56
2024/03/23 06:36:49;;;;;;;;;1.00;0.00;;;;;8.69;71.86;101161.19;5061586;28;45371;-55
2024/03/23 06:39:15;;;;;;;;;0.00;0.00;;;;;8.71;71.96;101168.13;5041967;28;73559;-55
2024/03/23 06:41:51;;;;;;;;;0.00;0.00;;;;;8.68;71.45;101160.34;5047500;28;45462;-56
2024/03/23 06:44:17;;;;;;;;;0.00;0.00;;;;;8.67;71.42;101162.97;5057720;28;45404;-56
2024/03/23 06:46:42;;;;;;;;;1.50;0.50;;;;;8.64;71.63;101161.25;5061582;28;45517;-56
2024/03/23 06:49:08;;;;;;;;;0.00;0.00;;;;;8.70;71.57;101174.22;5053946;28;70496;-56
2024/03/23 06:51:33;;;;;;;;;2.00;1.00;;;;;8.79;71.58;101170.63;5040330;28;72917;-57
2024/03/23 06:53:58;;;;;;;;;2.50;0.50;;;;;8.89;71.51;101168.78;5053239;28;64828;-55
2024/03/23 06:56:23;;;;;;;;;1.50;0.00;;;;;8.97;71.18;101171.28;5047708;28;69347;-56
2024/03/23 06:58:49;;;;;;;;;2.00;0.50;;;;;9.03;70.90;101174.69;5055630;28;73039;-54
2024/03/23 07:01:14;;;;;;;;;2.25;1.50;;;;;9.10;70.83;101176.31;5047807;28;56575;-53
2024/03/23 07:03:39;;;;;;;;;1.50;0.50;;;;;9.16;71.01;101177.97;5044390;28;45177;-56
2024/03/23 07:06:05;;;;;;;;;1.00;0.00;;;;;9.19;71.22;101180.56;5050407;28;67382;-55
2024/03/23 07:08:30;;;;;;;;;3.75;0.75;;;;;9.18;71.03;101194.47;5059783;28;63894;-55
2024/03/23 07:10:55;;;;;;;;;0.00;0.00;;;;;9.17;70.18;101194.50;5060039;28;74299;-56
2024/03/23 07:13:21;;;;;;;;;0.00;0.00;;;;;9.09;69.42;101202.44;5041601;28;71821;-52
2024/03/23 07:15:51;;;;;;;;;0.00;0.00;;;;;8.94;68.82;101180.00;5060251;28;68875;-52
2024/03/23 07:18:17;;;;;;;;;1.00;0.00;;;;;8.80;68.40;101174.09;5053174;28;45426;-56
2024/03/23 07:20:42;;;;;;;;;1.00;0.00;;;;;8.65;68.30;101168.19;5039902;28;75525;-55
2024/03/23 07:23:07;;;;;;;;;2.00;0.50;;;;;8.58;68.47;101176.97;5047838;28;72326;-55
2024/03/23 07:25:33;;;;;;;;;0.25;0.00;;;;;8.53;68.89;101181.38;5059776;28;56428;-56
2024/03/23 07:27:58;;;;;;;;;2.00;0.00;;;;;8.45;68.92;101180.63;5053384;28;71832;-56
2024/03/23 07:30:23;;;;;;;;;2.00;0.00;;;;;8.47;69.51;101184.91;5046425;28;46178;-56
2024/03/23 07:32:49;;;;;;;;;2.00;0.50;;;;;8.51;69.58;101185.75;5048271;28;67223;-56
2024/03/23 07:35:14;;;;;;;;;0.50;0.00;;;;;8.50;69.83;101182.28;5056746;28;63483;-57
2024/03/23 07:37:39;;;;;;;;;0.00;0.00;;;;;8.49;69.81;101183.16;5060580;28;51844;-55
2024/03/23 07:40:06;;;;;;;;;1.50;0.00;;;;;8.49;70.11;101187.53;5060640;28;47494;-56
2024/03/23 07:42:31;;;;;;;;;2.00;0.00;;;;;8.47;70.33;101187.53;5053398;28;45318;-56
2024/03/23 07:44:57;;;;;;;;;1.25;0.75;;;;;8.47;70.51;101190.13;5039948;28;66462;-55
2024/03/23 07:47:22;;;;;;;;;8.75;3.50;;;;;8.47;70.77;101177.09;5040462;28;45340;-56
2024/03/23 07:49:48;;;;;;;;;2.00;1.00;;;;;8.52;71.15;101170.09;5040486;28;46315;-56
2024/03/23 07:52:13;;;;;;;;;3.25;1.50;;;;;8.58;71.51;101171.75;5048565;28;45428;-55
2024/03/23 07:54:39;;;;;;;;;1.00;0.50;;;;;8.67;71.36;101182.06;5044391;28;68330;-53
2024/03/23 07:57:06;;;;;;;;;2.00;1.00;;;;;8.70;71.22;101166.38;5055541;28;45474;-55
2024/03/23 07:59:31;;;;;;;;;4.00;1.00;;;;;8.77;71.46;101163.72;5060370;28;47159;-54
2024/03/23 08:01:57;;;;;;;;;3.00;1.00;;;;;8.85;71.92;101160.13;5060538;28;45442;-60
2024/03/23 08:04:22;;;;;;;;;1.00;1.00;;;;;9.01;71.33;101170.34;5075972;28;48783;-56
2024/03/23 08:06:47;;;;;;;;;0.00;0.00;;;;;9.15;70.29;101178.84;5039972;28;73216;-55
2024/03/23 08:09:13;;;;;;;;;2.00;0.00;;;;;9.25;69.46;101171.75;5053447;28;46002;-58
2024/03/23 08:11:39;;;;;;;;;2.00;0.00;;;;;9.24;68.67;101181.34;5034260;28;45375;-55
2024/03/23 08:14:04;;;;;;;;;1.00;0.25;;;;;9.19;68.39;101179.66;5052889;28;45333;-55
2024/03/23 08:16:29;;;;;;;;;2.50;0.50;;;;;9.25;68.59;101175.22;5058525;28;45526;-57
2024/03/23 08:18:58;;;;;;;;;0.00;0.00;;;;;9.38;68.37;101182.88;5052653;27;75596;-57
2024/03/23 08:21:25;;;;;;;;;2.50;0.00;;;;;9.49;68.27;101187.06;5055110;28;45928;-56
2024/03/23 08:23:50;;;;;;;;;0.50;0.50;;;;;9.54;68.08;101188.75;5056989;28;45721;-56
2024/03/23 08:26:17;;;;;;;;;1.00;1.00;;;;;9.60;68.06;101194.75;5050316;28;73234;-56
2024/03/23 08:28:43;;;;;;;;;3.75;0.00;;;;;9.65;67.82;101190.31;5039732;28;47094;-54
2024/03/23 08:31:09;;;;;;;;;1.50;0.25;;;;;9.63;67.78;101199.94;5052695;28;45481;-56
2024/03/23 08:33:35;;;;;;;;;1.00;0.50;;;;;9.63;67.46;101196.44;5051977;28;45231;-56
2024/03/23 08:36:03;;;;;;;;;0.50;0.00;;;;;9.73;67.58;101194.56;5055918;28;45321;-56
2024/03/23 08:38:28;;;;;;;;;2.00;1.00;;;;;9.85;67.34;101194.34;5047205;28;46808;-56
2024/03/23 08:41:02;;;;;;;;;3.00;1.50;;;;;10.07;66.99;101193.09;5050619;28;45287;-55
2024/03/23 08:43:28;;;;;;;;;2.00;0.25;;;;;10.37;67.09;101203.06;5056905;28;45498;-55
2024/03/23 08:45:53;;;;;;;;;3.00;1.00;;;;;10.74;66.57;101197.97;5056028;27;45485;-57
2024/03/23 08:48:21;;;;;;;;;0.75;0.75;;;;;10.99;65.08;101185.22;5043212;28;60879;-57
2024/03/23 08:50:47;;;;;;;;;0.00;0.00;;;;;10.95;64.44;101212.38;5059220;28;45398;-57
2024/03/23 08:53:12;;;;;;;;;2.50;2.00;;;;;10.89;64.40;101209.91;5058914;28;45594;-56
2024/03/23 08:55:38;;;;;;;;;7.75;5.25;;;;;10.80;65.12;101216.19;5055331;28;71698;-57
2024/03/23 08:58:04;;;;;;;;;0.50;0.50;;;;;10.68;64.31;101223.41;5056863;28;73327;-57
2024/03/23 09:00:29;;;;;;;;;0.00;0.00;;;;;10.19;80.13;101206.84;5057745;28;45369;-56
2024/03/23 09:02:55;;;;;;;;;1.00;0.00;;;;;9.71;69.63;101212.00;5058165;28;45471;-57
2024/03/23 09:05:21;;;;;;;;;1.00;0.00;;;;;9.35;69.05;101206.44;5054181;28;45569;-56
2024/03/23 09:07:46;;;;;;;;;2.00;1.00;;;;;9.09;69.26;101198.09;5051652;28;46851;-57
2024/03/23 09:10:11;;;;;;;;;1.00;1.00;;;;;8.96;70.41;101193.91;5047091;28;68665;-56
2024/03/23 09:12:36;;;;;;;;;2.25;1.00;;;;;8.94;71.85;101190.44;5051502;28;66159;-56
2024/03/23 09:15:02;;;;;;;;;0.50;0.50;;;;;8.97;71.92;101190.41;5052604;28;51627;-55
2024/03/23 09:17:27;;;;;;;;;5.50;0.75;;;;;9.05;73.08;101179.88;5041204;28;47134;-60
2024/03/23 09:19:53;;;;;;;;;2.00;0.50;;;;;9.15;72.04;101189.28;5056431;28;45434;-62
2024/03/23 09:22:18;;;;;;;;;1.00;1.00;;;;;9.15;71.56;101194.53;5055503;28;48381;-58
2024/03/23 09:24:43;;;;;;;;;1.75;1.75;;;;;9.24;72.24;101183.09;5048256;28;57361;-57
2024/03/23 09:27:09;;;;;;;;;0.75;0.75;;;;;9.38;72.71;101186.34;5044927;28;75277;-61
2024/03/23 09:29:34;;;;;;;;;1.00;0.75;;;;;9.54;72.22;101184.38;5054514;28;45331;-61
2024/03/23 09:31:59;;;;;;;;;2.75;0.00;;;;;9.92;71.85;101177.69;5050956;28;53609;-63
2024/03/23 09:34:25;;;;;;;;;2.00;0.00;;;;;10.18;72.09;101185.06;5048807;28;57510;-63
2024/03/23 09:36:51;;;;;;;;;5.00;1.75;;;;;10.29;70.07;101176.13;5046743;28;45415;-71
2024/03/23 09:39:17;;;;;;;;;3.50;0.25;;;;;10.36;68.82;101180.44;5053548;28;45787;-67
2024/03/23 09:41:42;;;;;;;;;2.00;1.25;;;;;10.45;68.04;101195.94;5049208;28;45412;-63
2024/03/23 09:44:08;;;;;;;;;0.75;0.00;;;;;10.47;69.41;101193.28;5042278;28;65751;-67
2024/03/23 09:46:36;;;;;;;;;1.00;0.00;;;;;10.37;68.87;101192.59;5047384;28;46356;-66
2024/03/23 09:49:04;;;;;;;;;0.00;0.00;;;;;10.23;68.45;101187.59;5050405;28;45182;-62
2024/03/23 09:51:29;;;;;;;;;0.00;0.00;;;;;10.10;67.93;101178.25;5056558;28;45718;-65
2024/03/23 09:53:55;;;;;;;;;0.00;0.00;;;;;10.05;67.90;101183.53;5054129;28;45516;-62
2024/03/23 09:56:21;;;;;;;;;1.50;0.00;;;;;10.00;67.55;101183.63;5045539;28;75343;-63
2024/03/23 09:58:46;;;;;;;;;3.75;2.50;;;;;9.96;67.31;101176.72;5059178;28;45537;-61
2024/03/23 10:01:12;;;;;;;;;2.00;1.00;;;;;10.02;67.34;101165.28;5061466;28;45320;-62
2024/03/23 10:03:46;;;;;;;;;1.00;0.00;;;;;10.07;67.39;101166.97;5052762;28;73394;-65
2024/03/23 10:06:12;;;;;;;;;3.50;2.00;;;;;10.14;67.33;101161.59;5058997;28;46127;-65
2024/03/23 10:08:37;;;;;;;;;2.50;1.00;;;;;10.20;67.32;101170.19;5049099;28;45703;-64
2024/03/23 10:11:16;;;;;;;;;4.00;1.00;;;;;10.25;67.08;101157.91;5058890;28;67112;-63
2024/03/23 10:13:43;;;;;;;;;2.50;0.00;;;;;10.33;66.07;101159.53;5041080;28;45458;-63
2024/03/23 10:16:08;;;;;;;;;1.75;1.00;;;;;10.37;65.89;101154.19;5052871;27;45431;-64
2024/03/23 10:18:38;;;;;;;;;4.75;2.00;;;;;10.47;65.74;101154.91;5041603;28;45332;-63
2024/03/23 10:21:06;;;;;;;;;1.00;1.00;;;;;10.55;64.86;101163.47;5041791;28;45534;-67
2024/03/23 10:23:32;;;;;;;;;1.00;1.00;;;;;10.69;64.10;101147.47;5048994;28;45525;-68
2024/03/23 10:26:25;;;;;;;;;4.00;1.00;;;;;10.90;64.72;101146.16;5051972;28;46442;-72
2024/03/23 10:29:12;;;;;;;;;1.00;1.00;;;;;11.11;64.45;101141.34;5059677;28;45786;-64
2024/03/23 10:31:41;;;;;;;;;0.00;0.00;;;;;11.30;63.93;101133.94;5052398;28;45352;-64
2024/03/23 10:34:07;;;;;;;;;1.00;0.75;;;;;11.47;62.41;101133.50;5055429;28;45731;-64
2024/03/23 10:36:34;;;;;;;;;2.00;0.25;;;;;11.67;62.42;101127.75;5058411;28;46077;-64
2024/03/23 10:38:59;;;;;;;;;62.00;44.25;;;;;11.91;61.55;101126.31;5054962;28;45696;-67
2024/03/23 10:41:29;;;;;;;;;1.50;1.50;;;;;12.02;60.46;101119.00;5054328;28;69395;-64
2024/03/23 10:43:56;;;;;;;;;5.50;1.00;;;;;12.07;60.54;101113.66;5055822;28;45339;-68
2024/03/23 10:46:21;;;;;;;;;1.00;1.00;;;;;12.25;60.63;101114.91;5057794;28;45477;-64
2024/03/23 10:48:46;;;;;;;;;0.75;0.00;;;;;12.29;59.14;101104.28;5049260;28;72532;-63
2024/03/23 10:51:13;;;;;;;;;1.75;1.50;;;;;12.43;59.57;101101.28;5059734;28;45303;-63
2024/03/23 10:53:39;;;;;;;;;1.00;1.00;;;;;12.52;59.27;101100.16;5056683;28;45553;-63
2024/03/23 10:56:05;;;;;;;;;4.75;2.00;;;;;12.52;58.84;101098.38;5053942;27;46749;-63
2024/03/23 10:58:35;;;;;;;;;2.25;1.50;;;;;12.50;58.07;101092.31;5056857;28;46234;-63
2024/03/23 11:01:00;;;;;;;;;2.25;1.00;;;;;12.43;57.26;101077.66;5055365;28;45596;-63
2024/03/23 11:03:32;;;;;;;;;1.00;0.25;;;;;12.46;56.99;101079.31;5055959;28;73398;-64
2024/03/23 11:05:58;;;;;;;;;7.25;2.00;;;;;12.48;56.19;101083.63;5055778;28;46644;-67
2024/03/23 11:08:38;;;;;;;;;5.75;1.00;;;;;12.59;55.93;101072.81;5052888;27;45488;-65
2024/03/23 11:11:19;;;;;;;;;1.00;1.00;;;;;12.75;55.96;101065.31;5053705;28;45566;-65
2024/03/23 11:13:48;;;;;;;;;3.50;3.00;;;;;12.81;55.09;101066.91;5053826;28;45525;-63
2024/03/23 11:16:14;;;;;;;;;1.75;1.00;;;;;12.83;54.99;101068.56;5057256;28;46320;-69
2024/03/23 11:18:39;;;;;;;;;2.00;1.25;;;;;12.84;55.04;101065.03;5045394;28;45806;-67
2024/03/23 11:21:06;;;;;;;;;4.50;1.00;;;;;12.89;53.81;101067.50;5039938;28;45774;-65
2024/03/23 11:23:32;;;;;;;;;1.75;1.50;;;;;13.00;53.60;101065.41;5053136;28;45396;-66